createdAt,value
2023-04-15T00:00:59.402Z,5.03
2023-04-15T00:03:26.444Z,4.53
2023-04-15T00:05:53.627Z,4.20
2023-04-15T00:08:20.633Z,4.00
2023-04-15T00:10:48.053Z,3.70
2023-04-15T00:13:16.597Z,3.67
2023-04-15T00:15:43.495Z,3.40
2023-04-15T00:18:10.415Z,3.15
2023-04-15T00:20:37.615Z,2.25
2023-04-15T00:23:05.596Z,2.20
2023-04-15T00:25:33.051Z,2.50
2023-04-15T00:28:00.024Z,2.10
2023-04-15T00:30:26.904Z,2.25
2023-04-15T00:32:53.898Z,2.95
2023-04-15T00:35:23.902Z,2.75
2023-04-15T00:37:51.497Z,2.83
2023-04-15T00:40:19.661Z,2.90
2023-04-15T00:42:46.691Z,3.10
2023-04-15T00:45:16.298Z,3.38
2023-04-15T00:47:43.918Z,3.53
2023-04-15T00:50:11.438Z,3.65
2023-04-15T00:52:39.144Z,4.13
2023-04-15T00:55:06.838Z,3.80
2023-04-15T00:57:33.785Z,4.30
2023-04-15T01:00:01.163Z,4.28
2023-04-15T01:02:28.897Z,4.20
2023-04-15T01:04:56.792Z,4.28
2023-04-15T01:07:23.840Z,4.50
2023-04-15T01:09:51.446Z,4.72
2023-04-15T01:12:19.370Z,4.80
2023-04-15T01:14:46.649Z,5.50
2023-04-15T01:17:13.532Z,5.80
2023-04-15T01:19:40.690Z,6.15
2023-04-15T01:22:08.200Z,6.65
2023-04-15T01:24:38.388Z,7.22
2023-04-15T01:27:05.513Z,7.18
2023-04-15T01:29:33.099Z,7.03
2023-04-15T01:32:00.289Z,6.22
2023-04-15T01:34:27.656Z,6.60
2023-04-15T01:36:54.629Z,6.80
2023-04-15T01:39:22.699Z,6.38
2023-04-15T01:41:49.619Z,6.82
2023-04-15T01:44:16.910Z,6.65
2023-04-15T01:46:43.809Z,6.60
2023-04-15T01:49:10.745Z,5.95
2023-04-15T01:51:37.893Z,5.13
2023-04-15T01:54:06.509Z,4.30
2023-04-15T01:56:33.501Z,4.43
2023-04-15T01:59:00.891Z,4.68
2023-04-15T02:01:27.862Z,4.78
2023-04-15T02:03:54.874Z,5.22
2023-04-15T02:06:21.791Z,5.60
2023-04-15T02:08:48.696Z,5.47
2023-04-15T02:11:15.533Z,5.22
2023-04-15T02:13:42.377Z,5.63
2023-04-15T02:16:18.892Z,5.07
2023-04-15T02:18:46.913Z,5.30
2023-04-15T02:21:14.133Z,4.95
2023-04-15T02:23:41.139Z,4.60
2023-04-15T02:26:08.202Z,4.15
2023-04-15T02:28:35.161Z,4.30
2023-04-15T02:31:06.528Z,4.35
2023-04-15T02:33:33.686Z,4.00
2023-04-15T02:36:01.092Z,3.67
2023-04-15T02:38:28.784Z,3.80
2023-04-15T02:40:55.753Z,3.45
2023-04-15T02:43:22.841Z,3.40
2023-04-15T02:45:51.441Z,3.13
2023-04-15T02:48:20.272Z,3.45
2023-04-15T02:50:47.924Z,3.47
2023-04-15T02:53:16.154Z,3.33
2023-04-15T02:55:43.061Z,3.30
2023-04-15T02:58:10.064Z,2.88
2023-04-15T03:00:37.060Z,3.25
2023-04-15T03:03:04.964Z,3.10
2023-04-15T03:05:32.359Z,3.10
2023-04-15T03:08:01.415Z,3.30
2023-04-15T03:10:28.552Z,3.15
2023-04-15T03:12:55.685Z,3.47
2023-04-15T03:15:24.023Z,3.15
2023-04-15T03:17:53.219Z,3.42
2023-04-15T03:20:20.479Z,3.33
2023-04-15T03:22:48.544Z,3.30
2023-04-15T03:25:15.720Z,3.50
2023-04-15T03:27:43.251Z,3.40
2023-04-15T03:30:12.379Z,3.50
2023-04-15T03:32:40.765Z,3.28
2023-04-15T03:35:09.623Z,3.88
2023-04-15T03:37:36.829Z,3.83
2023-04-15T03:40:03.746Z,3.85
2023-04-15T03:42:30.625Z,4.15
2023-04-15T03:44:57.524Z,4.57
2023-04-15T03:47:24.448Z,4.28
2023-04-15T03:49:51.397Z,4.68
2023-04-15T03:52:18.296Z,4.45
2023-04-15T03:54:45.115Z,4.50
2023-04-15T03:57:11.952Z,4.60
2023-04-15T03:59:38.795Z,4.70
2023-04-15T04:02:05.902Z,4.55
2023-04-15T04:04:32.877Z,4.70
2023-04-15T04:06:59.686Z,5.00
2023-04-15T04:09:26.613Z,5.20
2023-04-15T04:11:53.400Z,5.18
2023-04-15T04:14:20.343Z,5.07
2023-04-15T04:16:47.347Z,5.25
2023-04-15T04:19:14.971Z,4.93
2023-04-15T04:21:41.846Z,4.57
2023-04-15T04:24:08.698Z,4.90
2023-04-15T04:26:35.791Z,4.85
2023-04-15T04:29:02.919Z,5.40
2023-04-15T04:31:29.966Z,4.95
2023-04-15T04:33:56.834Z,5.10
2023-04-15T04:36:23.731Z,4.72
2023-04-15T04:38:50.627Z,5.20
2023-04-15T04:41:17.795Z,5.05
2023-04-15T04:43:44.618Z,5.05
2023-04-15T04:46:12.024Z,4.57
2023-04-15T04:48:39.359Z,4.97
2023-04-15T04:51:06.534Z,4.93
2023-04-15T04:53:33.394Z,5.90
2023-04-15T04:56:00.188Z,5.38
2023-04-15T04:58:27.319Z,5.38
2023-04-15T05:00:54.205Z,5.32
2023-04-15T05:03:22.004Z,5.63
2023-04-15T05:05:49.472Z,5.40
2023-04-15T05:08:16.688Z,5.18
2023-04-15T05:10:43.592Z,5.70
2023-04-15T05:13:10.582Z,5.85
2023-04-15T05:15:39.853Z,5.20
2023-04-15T05:18:06.937Z,5.68
2023-04-15T05:20:33.731Z,5.70
2023-04-15T05:23:00.656Z,5.40
2023-04-15T05:25:27.641Z,5.45
2023-04-15T05:27:54.753Z,5.90
2023-04-15T05:30:22.259Z,5.40
2023-04-15T05:32:49.231Z,6.13
2023-04-15T05:35:16.335Z,5.97
2023-04-15T05:37:43.237Z,5.95
2023-04-15T05:40:10.686Z,6.20
2023-04-15T05:42:37.724Z,5.70
2023-04-15T05:45:09.048Z,5.68
2023-04-15T05:47:37.401Z,5.82
2023-04-15T05:50:04.874Z,5.90
2023-04-15T05:52:32.059Z,6.13
2023-04-15T05:54:58.969Z,6.18
2023-04-15T05:57:25.890Z,5.78
2023-04-15T05:59:52.906Z,6.53
2023-04-15T06:02:19.845Z,6.97
2023-04-15T06:04:46.816Z,6.28
2023-04-15T06:07:13.885Z,6.57
2023-04-15T06:09:41.156Z,6.40
2023-04-15T06:12:12.111Z,6.60
2023-04-15T06:14:40.647Z,6.15
2023-04-15T06:17:07.651Z,5.85
2023-04-15T06:19:35.112Z,6.10
2023-04-15T06:22:02.243Z,5.63
2023-04-15T06:24:29.348Z,5.28
2023-04-15T06:26:56.209Z,5.47
2023-04-15T06:29:23.040Z,5.70
2023-04-15T06:31:49.921Z,5.13
2023-04-15T06:34:17.090Z,5.25
2023-04-15T06:36:43.931Z,5.28
2023-04-15T06:39:10.884Z,5.43
2023-04-15T06:41:37.729Z,5.00
2023-04-15T06:44:04.847Z,5.30
2023-04-15T06:46:31.791Z,5.15
2023-04-15T06:48:58.690Z,5.60
2023-04-15T06:51:26.763Z,5.15
2023-04-15T06:53:54.027Z,5.82
2023-04-15T06:56:21.948Z,5.72
2023-04-15T06:58:48.863Z,5.40
2023-04-15T07:01:15.769Z,5.03
2023-04-15T07:03:42.927Z,5.30
2023-04-15T07:06:10.234Z,5.05
2023-04-15T07:08:37.173Z,5.05
2023-04-15T07:11:04.078Z,5.10
2023-04-15T07:13:31.596Z,5.50
2023-04-15T07:15:58.886Z,5.32
2023-04-15T07:18:25.742Z,5.63
2023-04-15T07:20:52.852Z,5.53
2023-04-15T07:23:19.713Z,5.50
2023-04-15T07:25:47.397Z,5.70
2023-04-15T07:28:14.272Z,5.15
2023-04-15T07:30:41.641Z,5.32
2023-04-15T07:33:08.574Z,5.57
2023-04-15T07:35:35.703Z,5.32
2023-04-15T07:38:02.781Z,5.53
2023-04-15T07:40:29.860Z,5.75
2023-04-15T07:42:58.349Z,5.93
2023-04-15T07:45:25.306Z,6.45
2023-04-15T07:47:52.384Z,6.07
2023-04-15T07:50:19.830Z,6.18
2023-04-15T07:52:47.148Z,6.40
2023-04-15T07:55:14.044Z,6.03
2023-04-15T07:57:40.987Z,6.50
2023-04-15T08:00:08.756Z,6.55
2023-04-15T08:02:41.811Z,6.47
2023-04-15T08:05:10.821Z,6.38
2023-04-15T08:07:38.410Z,6.82
2023-04-15T08:10:06.389Z,6.47
2023-04-15T08:12:33.248Z,6.43
2023-04-15T08:15:00.972Z,7.00
2023-04-15T08:17:28.311Z,6.55
2023-04-15T08:19:55.290Z,6.65
2023-04-15T08:22:22.650Z,6.20
2023-04-15T08:24:49.541Z,6.93
2023-04-15T08:27:16.677Z,7.25
2023-04-15T08:29:43.540Z,7.75
2023-04-15T08:32:10.671Z,7.25
2023-04-15T08:34:37.817Z,8.00
2023-04-15T08:37:05.167Z,8.18
2023-04-15T08:39:32.072Z,7.90
2023-04-15T08:42:02.697Z,7.43
2023-04-15T08:44:30.834Z,8.30
2023-04-15T08:46:58.427Z,7.45
2023-04-15T08:49:25.621Z,7.90
2023-04-15T08:51:52.456Z,7.63
2023-04-15T08:54:19.722Z,7.53
2023-04-15T08:56:47.072Z,7.78
2023-04-15T08:59:14.034Z,8.13
2023-04-15T09:01:41.508Z,8.35
2023-04-15T09:04:09.135Z,8.52
2023-04-15T09:06:36.404Z,8.40
2023-04-15T09:09:03.426Z,8.20
2023-04-15T09:11:31.454Z,7.60
2023-04-15T09:13:58.379Z,7.88
2023-04-15T09:16:25.274Z,7.60
2023-04-15T09:18:52.445Z,9.00
2023-04-15T09:21:19.438Z,8.25
2023-04-15T09:23:58.166Z,8.13
2023-04-15T09:26:35.462Z,8.35
2023-04-15T09:29:09.534Z,8.65
2023-04-15T09:31:37.056Z,8.50
2023-04-15T09:34:04.281Z,8.50
2023-04-15T09:36:39.839Z,8.32
2023-04-15T09:39:07.105Z,8.48
2023-04-15T09:41:34.679Z,8.40
2023-04-15T09:44:01.898Z,8.48
2023-04-15T09:46:45.104Z,8.75
2023-04-15T09:49:12.481Z,7.32
2023-04-15T09:51:39.289Z,8.43
2023-04-15T09:54:06.188Z,7.68
2023-04-15T09:56:42.261Z,8.27
2023-04-15T09:59:09.484Z,8.38
2023-04-15T10:01:36.853Z,8.98
2023-04-15T10:04:04.776Z,8.50
2023-04-15T10:06:32.087Z,8.85
2023-04-15T10:08:59.177Z,8.55
2023-04-15T10:11:30.392Z,8.48
2023-04-15T10:16:27.827Z,8.02
2023-04-15T10:18:56.046Z,7.47
2023-04-15T10:21:23.716Z,7.40
2023-04-15T10:23:50.588Z,7.53
2023-04-15T10:26:17.770Z,6.80
2023-04-15T10:28:45.267Z,6.80
2023-04-15T10:31:16.611Z,6.82
2023-04-15T10:33:43.561Z,8.67
2023-04-15T10:36:10.545Z,6.88
2023-04-15T10:38:44.311Z,7.00
2023-04-15T10:41:21.968Z,6.70
2023-04-15T10:43:56.823Z,6.60
2023-04-15T10:46:37.424Z,7.28
2023-04-15T10:49:25.452Z,6.15
2023-04-15T10:52:02.010Z,6.43
2023-04-15T10:54:32.423Z,6.75
2023-04-15T10:57:05.995Z,7.18
2023-04-15T10:59:34.126Z,6.53
2023-04-15T11:02:05.333Z,7.18
2023-04-15T11:04:54.628Z,7.07
2023-04-15T11:07:41.360Z,7.65
2023-04-15T11:10:14.090Z,7.15
2023-04-15T11:12:41.309Z,7.60
2023-04-15T11:15:34.253Z,7.07
2023-04-15T11:18:20.860Z,6.47
2023-04-15T11:20:55.735Z,6.55
2023-04-15T11:23:39.069Z,7.72
2023-04-15T11:26:09.601Z,7.50
2023-04-15T11:28:38.782Z,6.78
2023-04-15T11:31:07.330Z,6.90
2023-04-15T11:33:34.288Z,6.35
2023-04-15T11:36:01.524Z,5.75
2023-04-15T11:38:28.525Z,6.15
2023-04-15T11:40:55.611Z,5.95
2023-04-15T11:43:23.172Z,6.50
2023-04-15T11:45:58.308Z,6.30
2023-04-15T11:48:29.691Z,6.10
2023-04-15T11:50:59.787Z,6.43
2023-04-15T11:53:42.124Z,6.32
2023-04-15T11:56:10.633Z,6.82
2023-04-15T11:58:38.330Z,6.57
2023-04-15T12:01:06.065Z,5.68
2023-04-15T12:03:40.549Z,5.65
2023-04-15T12:06:08.701Z,5.55
2023-04-15T12:08:51.253Z,5.85
2023-04-15T12:11:18.621Z,6.07
2023-04-15T12:13:49.386Z,6.00
2023-04-15T12:16:22.908Z,6.35
2023-04-15T12:18:55.920Z,5.63
2023-04-15T12:21:23.851Z,6.25
2023-04-15T12:23:51.583Z,5.97
2023-04-15T12:26:19.215Z,7.40
2023-04-15T12:28:46.822Z,8.80
2023-04-15T12:31:13.965Z,7.47
2023-04-15T12:33:40.925Z,6.20
2023-04-15T12:36:08.364Z,6.30
2023-04-15T12:38:35.174Z,5.65
2023-04-15T12:41:02.122Z,5.28
2023-04-15T12:43:29.228Z,4.93
2023-04-15T12:45:56.367Z,6.20
2023-04-15T12:48:23.325Z,6.57
2023-04-15T12:50:50.272Z,6.13
2023-04-15T12:53:17.486Z,6.45
2023-04-15T12:55:44.557Z,7.00
2023-04-15T12:58:11.956Z,6.32
2023-04-15T13:00:39.096Z,5.80
2023-04-15T13:03:07.248Z,6.00
2023-04-15T13:05:34.538Z,5.70
2023-04-15T13:08:01.530Z,5.60
2023-04-15T13:10:28.514Z,5.55
2023-04-15T13:12:56.939Z,6.30
2023-04-15T13:15:24.071Z,6.00
2023-04-15T13:17:51.227Z,6.20
2023-04-15T13:20:18.202Z,5.72
2023-04-15T13:22:45.432Z,5.40
2023-04-15T13:25:12.537Z,5.28
2023-04-15T13:27:39.437Z,4.88
2023-04-15T13:30:07.592Z,5.57
2023-04-15T13:32:34.590Z,5.40
2023-04-15T13:35:01.524Z,5.55
2023-04-15T13:37:29.031Z,5.43
2023-04-15T13:39:58.274Z,5.60
2023-04-15T13:42:27.402Z,5.25
2023-04-15T13:44:54.650Z,5.70
2023-04-15T13:47:22.002Z,5.10
2023-04-15T13:49:48.946Z,5.97
2023-04-15T13:52:16.132Z,5.78
2023-04-15T13:54:43.215Z,5.80
2023-04-15T13:57:10.453Z,5.55
2023-04-15T13:59:37.427Z,5.68
2023-04-15T14:02:04.605Z,5.10
2023-04-15T14:04:32.254Z,5.65
2023-04-15T14:06:59.170Z,4.85
2023-04-15T14:09:27.867Z,4.65
2023-04-15T14:11:55.142Z,5.10
2023-04-15T14:14:22.177Z,4.50
2023-04-15T14:16:49.329Z,4.75
2023-04-15T14:19:16.711Z,5.10
2023-04-15T14:21:43.648Z,6.25
2023-04-15T14:24:11.282Z,7.10
2023-04-15T14:26:38.119Z,6.82
2023-04-15T14:29:05.596Z,5.85
2023-04-15T14:31:32.689Z,5.32
2023-04-15T14:33:59.602Z,5.50
2023-04-15T14:36:27.161Z,5.10
2023-04-15T14:38:54.208Z,5.40
2023-04-15T14:41:22.373Z,4.93
2023-04-15T14:43:49.395Z,5.05
2023-04-15T14:46:16.521Z,5.03
2023-04-15T14:48:46.504Z,4.75
2023-04-15T14:51:13.435Z,5.30
2023-04-15T14:53:40.333Z,5.13
2023-04-15T14:56:07.508Z,5.43
2023-04-15T14:58:34.379Z,5.22
2023-04-15T15:01:02.721Z,5.45
2023-04-15T15:03:29.802Z,5.45
2023-04-15T15:05:58.024Z,4.63
2023-04-15T15:08:25.140Z,5.22
2023-04-15T15:10:52.056Z,4.97
2023-04-15T15:13:19.345Z,5.00
2023-04-15T15:15:46.360Z,5.30
2023-04-15T15:18:13.463Z,5.68
2023-04-15T15:20:40.555Z,4.90
2023-04-15T15:23:07.623Z,5.43
2023-04-15T15:25:34.541Z,4.65
2023-04-15T15:28:01.464Z,4.32
2023-04-15T15:30:28.553Z,4.57
2023-04-15T15:32:55.448Z,5.50
2023-04-15T15:35:23.057Z,5.10
2023-04-15T15:37:50.128Z,4.30
2023-04-15T15:40:17.110Z,5.20
2023-04-15T15:42:44.023Z,5.13
2023-04-15T15:45:11.641Z,4.88
2023-04-15T15:47:38.581Z,5.03
2023-04-15T15:50:06.396Z,4.93
2023-04-15T15:52:33.359Z,5.40
2023-04-15T15:55:00.391Z,4.70
2023-04-15T15:57:27.181Z,5.40
2023-04-15T16:00:02.010Z,5.40
2023-04-15T16:02:59.686Z,5.03
2023-04-15T16:05:19.437Z,4.95
2023-04-15T16:07:46.430Z,5.22
2023-04-15T16:10:14.174Z,5.25
2023-04-15T16:12:41.710Z,5.97
2023-04-15T16:15:10.201Z,4.90
2023-04-15T16:17:37.499Z,5.10
2023-04-15T16:20:05.828Z,5.28
2023-04-15T16:22:36.056Z,5.30
2023-04-15T16:25:03.393Z,5.07
2023-04-15T16:27:30.416Z,5.18
2023-04-15T16:29:57.578Z,5.43
2023-04-15T16:32:24.605Z,5.07
2023-04-15T16:34:52.596Z,5.07
2023-04-15T16:37:20.806Z,4.85
2023-04-15T16:39:47.983Z,5.53
2023-04-15T16:42:14.855Z,5.30
2023-04-15T16:44:41.871Z,5.32
2023-04-15T16:47:11.186Z,5.32
2023-04-15T16:49:38.472Z,5.32
2023-04-15T16:52:05.365Z,5.43
2023-04-15T16:54:34.887Z,5.75
2023-04-15T16:57:02.609Z,5.00
2023-04-15T16:59:29.539Z,4.80
2023-04-15T17:01:56.521Z,4.32
2023-04-15T17:04:23.705Z,4.30
2023-04-15T17:06:51.182Z,4.40
2023-04-15T17:09:18.228Z,4.65
2023-04-15T17:11:45.621Z,4.60
2023-04-15T17:14:12.554Z,4.70
2023-04-15T17:16:40.205Z,4.68
2023-04-15T17:19:07.107Z,4.10
2023-04-15T17:21:34.761Z,4.68
2023-04-15T17:24:01.669Z,5.05
2023-04-15T17:26:28.612Z,4.60
2023-04-15T17:28:55.570Z,4.70
2023-04-15T17:31:22.489Z,4.80
2023-04-15T17:34:00.809Z,5.10
2023-04-15T17:36:36.499Z,5.13
2023-04-15T17:39:03.808Z,5.10
2023-04-15T17:41:30.845Z,5.10
2023-04-15T17:43:57.641Z,5.20
2023-04-15T17:46:24.507Z,5.30
2023-04-15T17:48:51.431Z,6.15
2023-04-15T17:51:18.301Z,6.30
2023-04-15T17:53:45.298Z,5.38
2023-04-15T17:56:12.319Z,5.95
2023-04-15T17:58:39.571Z,6.00
2023-04-15T18:01:07.008Z,5.85
2023-04-15T18:03:34.294Z,5.53
2023-04-15T18:06:01.401Z,5.97
2023-04-15T18:08:29.066Z,6.20
2023-04-15T18:10:56.517Z,6.20
2023-04-15T18:13:23.575Z,6.05
2023-04-15T18:15:51.465Z,6.60
2023-04-15T18:18:18.416Z,6.68
2023-04-15T18:20:45.388Z,6.32
2023-04-15T18:23:12.442Z,6.90
2023-04-15T18:25:39.284Z,6.38
2023-04-15T18:28:06.454Z,6.63
2023-04-15T18:30:33.367Z,6.57
2023-04-15T18:33:00.781Z,6.57
2023-04-15T18:35:29.896Z,6.57
2023-04-15T18:37:58.544Z,6.22
2023-04-15T18:40:25.507Z,6.22
2023-04-15T18:42:52.636Z,7.03
2023-04-15T18:45:19.488Z,6.93
2023-04-15T18:47:46.667Z,6.40
2023-04-15T18:50:13.529Z,6.30
2023-04-15T18:52:40.634Z,6.68
2023-04-15T18:55:07.748Z,6.78
2023-04-15T18:57:34.923Z,6.38
2023-04-15T19:00:04.488Z,6.82
2023-04-15T19:02:31.503Z,7.20
2023-04-15T19:04:58.607Z,7.20
2023-04-15T19:07:25.476Z,6.70
2023-04-15T19:09:52.875Z,6.57
2023-04-15T19:12:20.254Z,7.13
2023-04-15T19:14:47.103Z,7.50
2023-04-15T19:17:14.145Z,7.63
2023-04-15T19:19:41.067Z,7.90
2023-04-15T19:22:08.945Z,7.93
2023-04-15T19:24:36.581Z,7.32
2023-04-15T19:27:03.492Z,7.90
2023-04-15T19:29:33.138Z,7.63
2023-04-15T19:32:00.201Z,8.25
2023-04-15T19:34:27.126Z,8.57
2023-04-15T19:36:54.176Z,8.00
2023-04-15T19:39:22.468Z,9.13
2023-04-15T19:41:49.818Z,8.80
2023-04-15T19:44:16.732Z,9.20
2023-04-15T19:46:44.874Z,9.25
2023-04-15T19:49:11.782Z,9.40
2023-04-15T19:51:38.634Z,8.90
2023-04-15T19:54:05.404Z,9.57
2023-04-15T19:56:34.255Z,11.32
2023-04-15T19:59:01.988Z,11.77
2023-04-15T20:01:29.106Z,11.98
2023-04-15T20:03:56.381Z,11.35
2023-04-15T20:06:23.463Z,10.73
2023-04-15T20:08:50.428Z,11.55
2023-04-15T20:11:17.515Z,11.77
2023-04-15T20:13:44.702Z,11.38
2023-04-15T20:16:12.856Z,10.85
2023-04-15T20:18:39.758Z,10.85
2023-04-15T20:21:06.676Z,10.30
2023-04-15T20:23:38.062Z,9.70
2023-04-15T20:26:04.921Z,9.70
2023-04-15T20:28:32.112Z,10.55
2023-04-15T20:31:02.407Z,10.88
2023-04-15T20:33:29.619Z,11.25
2023-04-15T20:35:56.623Z,10.82
2023-04-15T20:38:23.798Z,10.77
2023-04-15T20:40:51.246Z,10.50
2023-04-15T20:43:18.192Z,11.13
2023-04-15T20:45:45.053Z,11.38
2023-04-15T20:48:12.027Z,10.48
2023-04-15T20:50:39.114Z,11.32
2023-04-15T20:53:06.077Z,11.00
2023-04-15T20:55:35.870Z,10.43
2023-04-15T20:58:03.014Z,11.00
2023-04-15T21:00:30.241Z,11.70
2023-04-15T21:02:57.354Z,11.30
2023-04-15T21:05:24.384Z,10.50
2023-04-15T21:07:51.299Z,10.85
2023-04-15T21:10:18.277Z,10.60
2023-04-15T21:12:45.417Z,10.50
2023-04-15T21:15:14.518Z,10.30
2023-04-15T21:17:41.579Z,10.50
2023-04-15T21:20:09.057Z,8.90
2023-04-15T21:22:36.077Z,9.18
2023-04-15T21:25:03.229Z,8.98
2023-04-15T21:27:30.191Z,9.55
2023-04-15T21:29:57.027Z,9.32
2023-04-15T21:32:23.841Z,8.88
2023-04-15T21:34:50.802Z,9.55
2023-04-15T21:37:17.582Z,8.75
2023-04-15T21:39:44.513Z,9.45
2023-04-15T21:42:11.389Z,9.18
2023-04-15T21:44:38.304Z,9.15
2023-04-15T21:47:05.318Z,9.27
2023-04-15T21:49:32.423Z,10.35
2023-04-15T21:52:01.453Z,11.02
2023-04-15T21:54:28.575Z,10.65
2023-04-15T21:56:55.425Z,11.20
2023-04-15T21:59:22.339Z,10.65
2023-04-15T22:01:49.337Z,11.23
2023-04-15T22:04:18.831Z,10.27
2023-04-15T22:06:46.412Z,10.75
2023-04-15T22:09:14.378Z,10.15
2023-04-15T22:11:41.610Z,10.35
2023-04-15T22:14:09.105Z,10.07
2023-04-15T22:16:36.127Z,11.07
2023-04-15T22:19:03.085Z,11.30
2023-04-15T22:21:29.925Z,11.70
2023-04-15T22:24:35.278Z,12.32
2023-04-15T22:26:49.177Z,14.25
2023-04-15T22:29:16.056Z,12.13
2023-04-15T22:31:42.924Z,12.63
2023-04-15T22:34:09.955Z,11.90
2023-04-15T22:36:36.797Z,10.65
2023-04-15T22:39:03.967Z,10.93
2023-04-15T22:41:31.129Z,11.02
2023-04-15T22:43:57.963Z,10.35
2023-04-15T22:46:24.858Z,11.27
2023-04-15T22:48:51.889Z,10.80
2023-04-15T22:51:22.416Z,10.70
2023-04-15T22:53:50.353Z,10.52
2023-04-15T22:56:23.114Z,11.18
2023-04-15T22:58:50.061Z,11.25
2023-04-15T23:01:17.781Z,11.02
2023-04-15T23:03:55.856Z,11.27
2023-04-15T23:06:24.930Z,10.60
2023-04-15T23:08:52.318Z,11.57
2023-04-15T23:11:19.314Z,12.27
2023-04-15T23:13:46.212Z,10.93
2023-04-15T23:16:13.182Z,10.15
2023-04-15T23:18:39.989Z,9.45
2023-04-15T23:21:07.033Z,9.32
2023-04-15T23:23:33.988Z,9.57
2023-04-15T23:26:01.384Z,9.70
2023-04-15T23:28:28.305Z,9.25
2023-04-15T23:30:55.305Z,9.38
2023-04-15T23:33:22.088Z,9.48
2023-04-15T23:35:48.949Z,9.27
2023-04-15T23:38:16.064Z,8.77
2023-04-15T23:40:43.013Z,8.57
2023-04-15T23:43:09.951Z,7.90
2023-04-15T23:45:36.816Z,8.43
2023-04-15T23:48:03.742Z,7.78
2023-04-15T23:50:30.729Z,7.70
2023-04-15T23:52:57.644Z,8.07
2023-04-15T23:55:26.734Z,8.40
2023-04-15T23:57:53.734Z,8.15
